Repülésmeteorológia

METAR


Utolsó módosítás időpontja: 2020-01-28 12:50:00
954
SAHU41 HASM 281300
METAR LHSM 281245Z AUTO 17010KT CAVOK 09/06 Q1003 NOSIG

TAF


Utolsó módosítás időpontja: 2020-01-28 11:25:00
951
FCHU99 LHSM 281100 RRA
TAF LHSM 281115Z 2812/2821 18011KT CAVOK
BECMG 2812/2815 SCT020 BKN035
TEMPO 2814/2821 3000 SHRA BKN015TCU
PROB40 TEMPO 2817/2821 33018G38KT 1000 TSRA TSGS +SHSNRA SQ
BKN010CB
BECMG 2818/2821 30009KT